createdAt,value
2022-12-28T00:01:26.311Z,5.83
2022-12-28T00:03:54.106Z,5.30
2022-12-28T00:06:22.642Z,6.17
2022-12-28T00:08:57.480Z,5.40
2022-12-28T00:11:30.404Z,4.73
2022-12-28T00:14:00.188Z,6.23
2022-12-28T00:16:35.318Z,5.73
2022-12-28T00:19:07.679Z,5.47
2022-12-28T00:21:35.439Z,5.30
2022-12-28T00:24:03.112Z,5.50
2022-12-28T00:26:31.653Z,5.80
2022-12-28T00:29:04.760Z,6.07
2022-12-28T00:31:35.915Z,5.43
2022-12-28T00:34:04.014Z,6.50
2022-12-28T00:37:09.108Z,5.77
2022-12-28T00:39:19.945Z,8.27
2022-12-28T00:41:47.454Z,8.40
2022-12-28T00:44:14.838Z,7.27
2022-12-28T00:46:42.558Z,6.93
2022-12-28T00:49:09.921Z,6.60
2022-12-28T00:51:37.269Z,5.83
2022-12-28T00:54:04.965Z,5.60
2022-12-28T00:56:32.351Z,7.63
2022-12-28T00:58:59.847Z,6.43
2022-12-28T01:01:27.861Z,5.50
2022-12-28T01:03:56.895Z,5.73
2022-12-28T01:06:25.655Z,5.90
2022-12-28T01:08:53.313Z,6.37
2022-12-28T01:11:27.842Z,6.17
2022-12-28T01:13:57.455Z,7.03
2022-12-28T01:16:30.467Z,6.33
2022-12-28T01:18:59.270Z,6.73
2022-12-28T01:21:28.382Z,6.27
2022-12-28T01:23:57.348Z,7.10
2022-12-28T01:26:25.525Z,6.70
2022-12-28T01:28:52.922Z,6.73
2022-12-28T01:31:20.602Z,6.73
2022-12-28T01:33:48.314Z,6.50
2022-12-28T01:36:16.690Z,6.37
2022-12-28T01:38:44.538Z,6.07
2022-12-28T01:41:16.639Z,6.40
2022-12-28T01:43:47.317Z,6.30
2022-12-28T01:46:25.835Z,6.60
2022-12-28T01:49:05.417Z,6.67
2022-12-28T01:51:44.615Z,6.83
2022-12-28T01:54:12.042Z,7.20
2022-12-28T01:56:41.116Z,6.00
2022-12-28T01:59:08.488Z,5.77
2022-12-28T02:01:37.040Z,5.50
2022-12-28T02:04:04.868Z,6.17
2022-12-28T02:06:32.191Z,6.33
2022-12-28T02:09:18.151Z,5.93
2022-12-28T02:11:45.776Z,6.47
2022-12-28T02:14:13.302Z,6.03
2022-12-28T02:16:42.944Z,6.47
2022-12-28T02:19:12.178Z,6.27
2022-12-28T02:22:19.217Z,5.80
2022-12-28T02:25:12.731Z,7.43
2022-12-28T02:27:50.005Z,5.53
2022-12-28T02:32:44.648Z,5.77
2022-12-28T02:35:27.121Z,6.00
2022-12-28T02:37:57.593Z,6.03
2022-12-28T02:40:31.614Z,6.10
2022-12-28T02:42:59.224Z,6.30
2022-12-28T02:45:56.602Z,6.10
2022-12-28T02:48:42.999Z,5.73
2022-12-28T02:51:28.549Z,6.18
2022-12-28T02:54:09.095Z,6.03
2022-12-28T02:56:46.974Z,5.40
2022-12-28T02:59:40.675Z,6.00
2022-12-28T03:02:33.439Z,6.37
2022-12-28T03:05:14.942Z,7.17
2022-12-28T03:08:12.218Z,6.10
2022-12-28T03:10:45.446Z,5.80
2022-12-28T03:13:43.811Z,8.13
2022-12-28T03:16:55.848Z,6.03
2022-12-28T03:19:43.608Z,5.70
2022-12-28T03:22:29.822Z,6.13
2022-12-28T03:25:21.016Z,5.90
2022-12-28T03:28:08.464Z,7.43
2022-12-28T03:33:23.151Z,5.77
2022-12-28T03:35:52.977Z,5.37
2022-12-28T03:38:27.603Z,7.10
2022-12-28T03:41:08.941Z,6.67
2022-12-28T03:43:43.725Z,5.77
2022-12-28T03:46:21.229Z,7.00
2022-12-28T03:48:49.137Z,5.97
2022-12-28T03:51:19.763Z,7.27
2022-12-28T03:53:48.014Z,5.37
2022-12-28T03:56:19.341Z,4.97
2022-12-28T03:58:47.202Z,6.00
2022-12-28T04:01:15.164Z,5.53
2022-12-28T04:03:43.748Z,4.50
2022-12-28T04:06:20.402Z,5.77
2022-12-28T04:08:48.043Z,5.33
2022-12-28T04:11:15.554Z,5.33
2022-12-28T04:13:43.314Z,5.20
2022-12-28T04:16:12.544Z,6.23
2022-12-28T04:18:40.378Z,5.43
2022-12-28T04:21:08.863Z,5.57
2022-12-28T04:23:36.683Z,5.37
2022-12-28T04:26:06.974Z,5.90
2022-12-28T04:28:34.465Z,5.17
2022-12-28T04:31:05.606Z,4.80
2022-12-28T04:33:38.790Z,5.90
2022-12-28T04:36:07.581Z,12.83
2022-12-28T04:38:35.433Z,26.50
2022-12-28T04:41:02.890Z,18.97
2022-12-28T04:43:31.120Z,15.60
2022-12-28T04:45:59.072Z,17.53
2022-12-28T04:48:26.596Z,12.90
2022-12-28T04:50:54.368Z,13.90
2022-12-28T04:53:21.809Z,13.63
2022-12-28T04:55:49.193Z,15.07
2022-12-28T04:58:16.868Z,11.00
2022-12-28T05:00:44.301Z,10.33
2022-12-28T05:03:11.746Z,9.50
2022-12-28T05:05:40.482Z,12.07
2022-12-28T05:08:07.869Z,16.40
2022-12-28T05:10:35.357Z,11.97
2022-12-28T05:13:03.039Z,12.40
2022-12-28T05:15:30.396Z,13.07
2022-12-28T05:17:57.734Z,11.50
2022-12-28T05:20:25.368Z,12.80
2022-12-28T05:22:52.698Z,11.70
2022-12-28T05:25:20.019Z,11.07
2022-12-28T05:27:47.681Z,11.33
2022-12-28T05:30:15.081Z,11.67
2022-12-28T05:32:42.449Z,10.93
2022-12-28T05:35:10.096Z,10.43
2022-12-28T05:37:37.463Z,10.23
2022-12-28T05:40:05.312Z,11.30
2022-12-28T05:42:32.970Z,10.73
2022-12-28T05:45:00.338Z,9.47
2022-12-28T05:47:27.674Z,11.00
2022-12-28T05:49:55.348Z,10.73
2022-12-28T05:52:22.671Z,10.13
2022-12-28T05:54:50.236Z,10.60
2022-12-28T05:57:17.915Z,10.27
2022-12-28T05:59:45.293Z,9.93
2022-12-28T06:02:12.796Z,9.13
2022-12-28T06:04:41.260Z,10.17
2022-12-28T06:07:08.620Z,9.97
2022-12-28T06:09:35.984Z,10.00
2022-12-28T06:12:04.850Z,9.53
2022-12-28T06:14:32.209Z,9.70
2022-12-28T06:16:59.623Z,8.67
2022-12-28T06:19:27.294Z,8.17
2022-12-28T06:21:54.654Z,8.87
2022-12-28T06:24:21.994Z,7.67
2022-12-28T06:26:51.255Z,8.33
2022-12-28T06:29:18.851Z,8.33
2022-12-28T06:31:51.206Z,8.10
2022-12-28T06:34:18.898Z,8.77
2022-12-28T06:36:46.327Z,9.30
2022-12-28T06:39:14.316Z,10.33
2022-12-28T06:41:42.142Z,9.30
2022-12-28T06:44:10.487Z,9.47
2022-12-28T06:46:38.868Z,10.07
2022-12-28T06:49:06.510Z,10.37
2022-12-28T06:51:36.434Z,9.63
2022-12-28T06:54:04.035Z,10.27
2022-12-28T06:56:33.201Z,9.90
2022-12-28T06:59:03.642Z,11.00
2022-12-28T07:01:35.514Z,10.43
2022-12-28T07:04:03.564Z,10.50
2022-12-28T07:06:33.800Z,15.67
2022-12-28T07:09:02.352Z,16.80
2022-12-28T07:11:29.803Z,16.13
2022-12-28T07:13:57.283Z,14.93
2022-12-28T07:16:25.895Z,14.30
2022-12-28T07:18:53.281Z,12.53
2022-12-28T07:21:25.588Z,11.30
2022-12-28T07:23:53.795Z,10.87
2022-12-28T07:26:22.547Z,10.53
2022-12-28T07:28:51.564Z,9.20
2022-12-28T07:31:20.848Z,10.27
2022-12-28T07:33:48.547Z,10.13
2022-12-28T07:36:17.570Z,9.97
2022-12-28T07:38:45.256Z,10.37
2022-12-28T07:41:13.774Z,10.50
2022-12-28T07:43:41.132Z,11.20
2022-12-28T07:46:13.235Z,17.10
2022-12-28T07:48:41.163Z,13.30
2022-12-28T07:51:18.963Z,13.73
2022-12-28T07:53:47.941Z,12.93
2022-12-28T07:56:15.714Z,16.10
2022-12-28T08:01:11.172Z,16.17
2022-12-28T08:03:38.950Z,16.13
2022-12-28T08:06:19.366Z,16.43
2022-12-28T08:08:48.134Z,18.70
2022-12-28T08:11:17.544Z,18.27
2022-12-28T08:13:46.309Z,17.43
2022-12-28T08:16:15.071Z,16.90
2022-12-28T08:18:42.477Z,15.23
2022-12-28T08:21:20.137Z,16.20
2022-12-28T08:23:48.030Z,14.27
2022-12-28T08:26:16.393Z,14.47
2022-12-28T08:28:44.398Z,14.33
2022-12-28T08:31:19.925Z,13.63
2022-12-28T08:33:47.775Z,14.87
2022-12-28T08:36:15.396Z,19.63
2022-12-28T08:38:43.441Z,16.73
2022-12-28T08:41:18.808Z,16.73
2022-12-28T08:43:46.512Z,15.15
2022-12-28T08:46:19.299Z,20.43
2022-12-28T08:48:47.615Z,19.87
2022-12-28T08:51:16.831Z,18.03
2022-12-28T08:53:44.228Z,18.13
2022-12-28T08:56:17.022Z,15.87
2022-12-28T08:58:44.890Z,15.60
2022-12-28T09:01:35.924Z,13.47
2022-12-28T09:04:07.802Z,13.20
2022-12-28T09:06:36.934Z,12.57
2022-12-28T09:09:08.289Z,13.27
2022-12-28T09:11:36.382Z,11.63
2022-12-28T09:14:04.463Z,13.50
2022-12-28T09:16:31.895Z,13.23
2022-12-28T09:19:01.283Z,13.10
2022-12-28T09:21:33.470Z,14.03
2022-12-28T09:24:01.085Z,13.60
2022-12-28T09:26:31.293Z,12.27
2022-12-28T09:29:00.136Z,11.70
2022-12-28T09:31:29.376Z,11.83
2022-12-28T09:36:48.272Z,12.13
2022-12-28T09:39:17.743Z,11.77
2022-12-28T09:41:48.550Z,13.23
2022-12-28T09:44:56.172Z,18.10
2022-12-28T09:47:49.819Z,20.43
2022-12-28T09:50:17.486Z,17.07
2022-12-28T09:52:50.032Z,17.03
2022-12-28T09:55:18.482Z,16.30
2022-12-28T09:57:49.037Z,14.10
2022-12-28T10:00:18.591Z,12.97
2022-12-28T10:02:50.038Z,14.43
2022-12-28T10:05:17.620Z,13.67
2022-12-28T10:07:44.965Z,14.63
2022-12-28T10:10:17.535Z,16.23
2022-12-28T10:12:45.471Z,15.47
2022-12-28T10:15:16.305Z,13.30
2022-12-28T10:17:43.682Z,12.80
2022-12-28T10:20:15.676Z,11.33
2022-12-28T10:22:49.718Z,10.63
2022-12-28T10:25:19.684Z,10.33
2022-12-28T10:27:47.458Z,9.33
2022-12-28T10:30:26.991Z,10.53
2022-12-28T10:33:02.134Z,10.40
2022-12-28T10:35:43.144Z,9.97
2022-12-28T10:38:26.040Z,9.20
2022-12-28T10:41:06.290Z,9.50
2022-12-28T10:43:39.051Z,9.57
2022-12-28T10:46:07.473Z,10.67
2022-12-28T10:48:38.344Z,10.88
2022-12-28T10:51:19.802Z,11.10
2022-12-28T10:53:49.280Z,10.57
2022-12-28T10:56:24.005Z,12.27
2022-12-28T10:58:56.063Z,12.37
2022-12-28T11:01:26.269Z,14.70
2022-12-28T11:03:56.716Z,14.45
2022-12-28T11:06:27.526Z,15.43
2022-12-28T11:09:24.764Z,14.27
2022-12-28T11:11:53.781Z,14.98
2022-12-28T11:14:36.938Z,15.02
2022-12-28T11:17:23.585Z,13.68
2022-12-28T11:19:52.936Z,15.47
2022-12-28T11:22:25.113Z,15.60
2022-12-28T11:24:52.766Z,13.85
2022-12-28T11:27:21.446Z,14.68
2022-12-28T11:29:50.503Z,13.73
2022-12-28T11:32:28.178Z,12.65
2022-12-28T11:34:55.659Z,11.88
2022-12-28T11:37:23.286Z,12.02
2022-12-28T11:39:51.794Z,11.55
2022-12-28T11:42:39.429Z,11.48
2022-12-28T11:45:17.119Z,10.65
2022-12-28T11:50:38.233Z,11.48
2022-12-28T11:53:42.658Z,10.40
2022-12-28T11:56:17.262Z,11.20
2022-12-28T11:58:46.604Z,11.23
2022-12-28T12:01:41.099Z,11.37
2022-12-28T12:04:16.809Z,10.40
2022-12-28T12:06:44.150Z,10.30
2022-12-28T12:09:20.835Z,10.53
2022-12-28T12:11:48.991Z,12.02
2022-12-28T12:14:17.831Z,11.00
2022-12-28T12:17:03.339Z,11.55
2022-12-28T12:19:33.297Z,10.93
2022-12-28T12:22:06.940Z,9.50
2022-12-28T12:24:43.253Z,8.67
2022-12-28T12:27:15.729Z,9.73
2022-12-28T12:29:51.294Z,9.85
2022-12-28T12:32:26.747Z,9.48
2022-12-28T12:35:04.342Z,9.67
2022-12-28T12:37:56.854Z,10.40
2022-12-28T12:40:46.246Z,10.70
2022-12-28T12:43:19.390Z,10.25
2022-12-28T12:45:52.946Z,9.38
2022-12-28T12:48:26.252Z,9.63
2022-12-28T12:51:11.729Z,9.27
2022-12-28T12:53:58.395Z,10.55
2022-12-28T12:56:35.543Z,10.10
2022-12-28T12:59:21.761Z,9.27
2022-12-28T13:04:26.329Z,8.88
2022-12-28T13:06:57.495Z,8.45
2022-12-28T13:09:25.992Z,8.65
2022-12-28T13:11:53.723Z,8.82
2022-12-28T13:14:22.312Z,9.10
2022-12-28T13:16:56.974Z,8.70
2022-12-28T13:19:26.267Z,8.30
2022-12-28T13:21:53.798Z,9.30
2022-12-28T13:24:31.824Z,8.38
2022-12-28T13:26:59.689Z,9.05
2022-12-28T13:29:36.063Z,8.95
2022-12-28T13:34:35.062Z,9.30
2022-12-28T13:37:06.145Z,8.43
2022-12-28T13:39:40.018Z,8.70
2022-12-28T13:42:16.295Z,9.57
2022-12-28T13:44:48.201Z,8.35
2022-12-28T13:47:28.503Z,9.48
2022-12-28T13:50:06.309Z,9.37
2022-12-28T13:52:36.887Z,8.87
2022-12-28T13:55:15.992Z,9.48
2022-12-28T13:57:50.122Z,10.27
2022-12-28T14:00:20.992Z,9.63
2022-12-28T14:02:49.745Z,9.63
2022-12-28T14:05:22.779Z,9.18
2022-12-28T14:07:50.647Z,8.87
2022-12-28T14:10:18.305Z,8.80
2022-12-28T14:12:45.737Z,8.43
2022-12-28T14:15:13.556Z,8.40
2022-12-28T14:17:40.885Z,8.45
2022-12-28T14:20:09.151Z,8.35
2022-12-28T14:22:37.844Z,8.38
2022-12-28T14:25:10.117Z,8.32
2022-12-28T14:27:45.997Z,8.68
2022-12-28T14:30:31.082Z,11.27
2022-12-28T14:32:59.759Z,10.18
2022-12-28T14:35:27.497Z,9.25
2022-12-28T14:37:56.593Z,9.52
2022-12-28T14:40:32.589Z,10.43
2022-12-28T14:43:22.697Z,10.82
2022-12-28T14:46:04.909Z,11.23
2022-12-28T14:48:40.478Z,11.15
2022-12-28T14:56:51.678Z,9.27
2022-12-28T14:59:27.807Z,10.52
2022-12-28T15:00:16.329Z,9.43
2022-12-28T15:01:55.587Z,10.80
2022-12-28T15:04:28.495Z,10.70
2022-12-28T15:06:56.252Z,10.63
2022-12-28T15:09:23.636Z,10.40
2022-12-28T15:12:09.486Z,9.00
2022-12-28T15:17:04.790Z,11.57
2022-12-28T15:19:32.267Z,10.83
2022-12-28T15:21:59.883Z,12.63
2022-12-28T15:24:33.522Z,13.17
2022-12-28T15:27:02.785Z,12.80
2022-12-28T15:32:17.722Z,11.57
2022-12-28T15:34:45.285Z,11.13
2022-12-28T15:37:12.655Z,11.33
2022-12-28T15:39:40.426Z,11.37
2022-12-28T15:42:07.915Z,12.43
2022-12-28T15:44:35.300Z,11.40
2022-12-28T15:47:03.015Z,13.83
2022-12-28T15:49:30.419Z,11.30
2022-12-28T15:51:57.942Z,13.30
2022-12-28T15:54:25.605Z,11.93
2022-12-28T15:56:53.750Z,11.23
2022-12-28T15:59:21.117Z,11.57
2022-12-28T16:01:48.961Z,10.90
2022-12-28T16:04:16.963Z,10.77
2022-12-28T16:06:45.336Z,10.37
2022-12-28T16:09:13.450Z,11.10
2022-12-28T16:11:41.373Z,11.20
2022-12-28T16:14:13.079Z,11.27
2022-12-28T16:16:40.832Z,10.63
2022-12-28T16:19:09.029Z,10.17
2022-12-28T16:21:36.432Z,10.10
2022-12-28T16:24:04.164Z,11.27
2022-12-28T16:26:31.628Z,10.80
2022-12-28T16:29:00.138Z,10.37
2022-12-28T16:31:34.884Z,10.47
2022-12-28T16:34:05.976Z,9.17
2022-12-28T16:36:33.738Z,8.93
2022-12-28T16:39:03.034Z,7.93
2022-12-28T16:41:36.676Z,9.13
2022-12-28T16:44:12.067Z,8.97
2022-12-28T16:46:39.442Z,9.33
2022-12-28T16:49:07.117Z,9.10
2022-12-28T16:51:34.539Z,9.10
2022-12-28T16:54:01.930Z,9.40
2022-12-28T16:56:29.556Z,11.07
2022-12-28T16:58:57.737Z,10.27
2022-12-28T17:01:25.252Z,10.10
2022-12-28T17:03:54.515Z,11.67
2022-12-28T17:06:23.623Z,11.17
2022-12-28T17:08:51.029Z,10.93
2022-12-28T17:11:19.260Z,9.73
2022-12-28T17:13:46.748Z,10.43
2022-12-28T17:16:14.153Z,10.73
2022-12-28T17:18:41.767Z,15.43
2022-12-28T17:21:10.550Z,12.00
2022-12-28T17:23:39.256Z,13.33
2022-12-28T17:26:07.365Z,14.57
2022-12-28T17:28:34.759Z,14.20
2022-12-28T17:31:09.990Z,12.43
2022-12-28T17:33:39.945Z,12.00
2022-12-28T17:36:08.520Z,11.67
2022-12-28T17:38:36.010Z,11.27
2022-12-28T17:41:08.629Z,11.23
2022-12-28T17:43:36.011Z,10.47
2022-12-28T17:46:03.715Z,11.37
2022-12-28T17:48:31.153Z,11.47
2022-12-28T17:51:02.802Z,12.63
2022-12-28T17:53:33.957Z,11.20
2022-12-28T17:56:02.562Z,11.10
2022-12-28T17:58:30.302Z,12.03
2022-12-28T18:00:58.057Z,13.00
2022-12-28T18:03:31.554Z,13.60
2022-12-28T18:06:00.920Z,12.43
2022-12-28T18:08:28.682Z,12.80
2022-12-28T18:10:56.180Z,13.43
2022-12-28T18:13:23.627Z,11.83
2022-12-28T18:15:51.388Z,12.43
2022-12-28T18:18:18.766Z,12.63
2022-12-28T18:20:47.114Z,12.53
2022-12-28T18:23:14.759Z,11.73
2022-12-28T18:25:42.131Z,12.60
2022-12-28T18:28:09.783Z,14.03
2022-12-28T18:30:39.993Z,14.37
2022-12-28T18:33:07.482Z,13.70
2022-12-28T18:35:34.813Z,13.80
2022-12-28T18:38:02.476Z,12.93
2022-12-28T18:40:29.877Z,13.13
2022-12-28T18:42:58.288Z,13.47
2022-12-28T18:45:26.100Z,13.40
2022-12-28T18:47:53.493Z,14.73
2022-12-28T18:50:20.897Z,14.77
2022-12-28T18:52:48.501Z,14.93
2022-12-28T18:55:15.916Z,15.67
2022-12-28T18:57:43.358Z,14.83
2022-12-28T19:00:11.459Z,15.23
2022-12-28T19:02:39.010Z,16.87
2022-12-28T19:05:06.617Z,17.83
2022-12-28T19:07:34.233Z,16.53
2022-12-28T19:10:15.798Z,16.93
2022-12-28T19:12:44.189Z,16.53
2022-12-28T19:15:12.339Z,18.23
2022-12-28T19:17:39.752Z,15.77
2022-12-28T19:20:07.810Z,17.00
2022-12-28T19:22:35.161Z,15.87
2022-12-28T19:25:02.707Z,17.03
2022-12-28T19:27:30.374Z,16.67
2022-12-28T19:29:57.743Z,17.13
2022-12-28T19:32:25.196Z,17.37
2022-12-28T19:34:53.603Z,16.30
2022-12-28T19:37:20.935Z,17.30
2022-12-28T19:39:51.196Z,18.07
2022-12-28T19:42:22.383Z,17.83
2022-12-28T19:44:49.727Z,20.73
2022-12-28T19:47:17.111Z,19.43
2022-12-28T19:49:44.690Z,20.97
2022-12-28T19:52:12.066Z,21.37
2022-12-28T19:54:39.678Z,19.70
2022-12-28T19:57:07.304Z,22.23
2022-12-28T19:59:34.846Z,21.50
2022-12-28T20:02:02.434Z,20.10
2022-12-28T20:04:30.123Z,22.83
2022-12-28T20:06:57.480Z,23.63
2022-12-28T20:09:24.817Z,24.43
2022-12-28T20:11:52.460Z,25.13
2022-12-28T20:14:24.943Z,18.27
2022-12-28T20:16:53.066Z,19.40
2022-12-28T20:19:20.519Z,21.07
2022-12-28T20:21:49.406Z,21.50
2022-12-28T20:24:17.998Z,19.90
2022-12-28T20:26:45.393Z,18.57
2022-12-28T20:29:16.245Z,16.13
2022-12-28T20:31:44.514Z,16.27
2022-12-28T20:34:11.939Z,15.17
2022-12-28T20:36:39.362Z,15.53
2022-12-28T20:39:07.016Z,14.73
2022-12-28T20:41:53.274Z,14.87
2022-12-28T20:44:26.246Z,16.40
2022-12-28T20:46:54.590Z,15.47
2022-12-28T20:49:23.116Z,14.23
2022-12-28T20:51:50.723Z,14.13
2022-12-28T20:54:19.528Z,15.30
2022-12-28T20:56:53.906Z,16.33
2022-12-28T20:59:22.032Z,16.13
2022-12-28T21:01:49.748Z,15.10
2022-12-28T21:04:17.204Z,15.77
2022-12-28T21:06:45.830Z,16.67
2022-12-28T21:09:13.640Z,16.37
2022-12-28T21:11:41.095Z,15.73
2022-12-28T21:14:08.476Z,17.17
2022-12-28T21:16:36.188Z,17.80
2022-12-28T21:19:03.833Z,19.23
2022-12-28T21:21:31.241Z,25.67
2022-12-28T21:23:58.889Z,29.83
2022-12-28T21:26:26.257Z,18.60
2022-12-28T21:28:53.616Z,21.00
2022-12-28T21:31:21.293Z,23.17
2022-12-28T21:33:48.679Z,23.53
2022-12-28T21:36:17.806Z,23.37
2022-12-28T21:38:46.507Z,23.10
2022-12-28T21:41:37.885Z,26.97
2022-12-28T21:44:06.417Z,26.93
2022-12-28T21:46:34.779Z,29.03
2022-12-28T21:49:04.927Z,26.03
2022-12-28T21:51:34.898Z,26.83
2022-12-28T21:54:06.952Z,21.43
2022-12-28T21:56:35.105Z,19.97
2022-12-28T21:59:02.499Z,21.97
2022-12-28T22:01:48.552Z,20.23
2022-12-28T22:07:03.372Z,18.70
2022-12-28T22:09:49.893Z,16.43
2022-12-28T22:12:35.501Z,21.12
2022-12-28T22:15:24.607Z,20.65
2022-12-28T22:17:54.087Z,25.13
2022-12-28T22:20:22.097Z,30.73
2022-12-28T22:22:49.462Z,28.27
2022-12-28T22:25:16.923Z,37.77
2022-12-28T22:27:44.547Z,34.13
2022-12-28T22:30:12.255Z,34.90
2022-12-28T22:32:39.709Z,32.17
2022-12-28T22:35:08.256Z,30.43
2022-12-28T22:37:35.791Z,24.87
2022-12-28T22:40:04.328Z,23.53
2022-12-28T22:42:31.976Z,24.93
2022-12-28T22:44:59.301Z,22.13
2022-12-28T22:47:28.058Z,22.53
2022-12-28T22:49:55.792Z,23.77
2022-12-28T22:52:23.158Z,18.97
2022-12-28T22:54:51.155Z,20.50
2022-12-28T22:57:18.783Z,18.77
2022-12-28T22:59:46.107Z,19.23
2022-12-28T23:02:13.804Z,21.30
2022-12-28T23:04:41.566Z,19.13
2022-12-28T23:07:08.955Z,19.93
2022-12-28T23:09:36.699Z,19.47
2022-12-28T23:12:04.349Z,21.20
2022-12-28T23:14:50.343Z,21.13
2022-12-28T23:17:17.964Z,18.62
2022-12-28T23:20:04.204Z,20.10
2022-12-28T23:22:52.523Z,18.20
2022-12-28T23:25:40.218Z,19.47
2022-12-28T23:28:10.337Z,17.90
2022-12-28T23:30:38.534Z,17.13
2022-12-28T23:33:05.979Z,18.23
2022-12-28T23:35:33.608Z,16.87
2022-12-28T23:38:00.950Z,18.53
2022-12-28T23:40:28.344Z,18.53
2022-12-28T23:42:56.020Z,18.50
2022-12-28T23:45:23.492Z,18.70
2022-12-28T23:47:52.172Z,16.10
2022-12-28T23:50:19.796Z,19.40
2022-12-28T23:52:47.250Z,18.17
2022-12-28T23:55:14.659Z,16.17
2022-12-28T23:57:42.289Z,20.10
